Flight Track Log - Related Links

Times and Time Zones

All times are in EDT time to prevent confusion due to time zone crossing. See the SWA1034 flight status page for this flight to view local times or setup timezone preferences in your user account.

Time Position Orientation Groundspeed Altitude Reporting Facility
EDT Latitude Longitude Course Direction KTS MPH feet Rate Location/Type
Sat 08:42:32 PM 28.3833 -81.3167 188° South 170 196 2,700  Level Orlando TRACON
Sat 08:43:26 PM 28.3500 -81.3500 221° Southwest 213 245 6,300 3,323 Climbing Orlando TRACON
Sat 08:45:38 PM 28.3700 -81.5031 278° West 238 274 13,000 2,781 Climbing Jacksonville Center
Sat 08:46:38 PM 28.3792 -81.5997 276° West 273 314 15,200 2,600 Climbing Jacksonville Center
Sat 08:47:38 PM 28.3908 -81.7106 277° West 321 369 18,200 3,500 Climbing Jacksonville Center
Sat 08:48:38 PM 28.4022 -81.8400 276° West 361 415 22,200 3,350 Climbing Jacksonville Center
Sat 08:49:38 PM 28.4219 -81.9650 280° West 383 441 24,900 2,550 Climbing Jacksonville Center
Sat 08:50:38 PM 28.5206 -82.0372 327° Northwest 381 438 27,300 2,250 Climbing Jacksonville Center
Sat 08:51:38 PM 28.6378 -82.0861 340° North 389 448 29,400 2,000 Climbing Jacksonville Center
Sat 08:52:38 PM 28.7592 -82.1394 339° North 422 486 31,300 2,000 Climbing Jacksonville Center
Sat 08:53:38 PM 28.8828 -82.1978 338° Northwest 454 522 33,400 1,350 Climbing Jacksonville Center
Sat 08:54:38 PM 29.0039 -82.2492 340° North 463 533 34,000 300 Climbing Jacksonville Center
Sat 08:55:38 PM 29.1275 -82.3056 338° Northwest 468 539 34,000  Level Jacksonville Center
Sat 08:56:38 PM 29.2486 -82.3569 340° North 473 544 34,000  Level Jacksonville Center
Sat 08:57:38 PM 29.3719 -82.4158 337° Northwest 473 544 34,000 800 Level Jacksonville Center
Sat 08:58:38 PM 29.4914 -82.4678 339° North 473 544 35,600 1,850 Climbing Jacksonville Center
Sat 08:59:38 PM 29.6125 -82.5222 339° North 473 544 37,700 1,500 Climbing Jacksonville Center
Sat 09:00:38 PM 29.7317 -82.5769 338° Northwest 473 544 38,600 1,150 Climbing Jacksonville Center
Sat 09:01:38 PM 29.8403 -82.6267 338° Northwest 473 544 40,000 700 Climbing Jacksonville Center
Sat 09:02:38 PM 29.9594 -82.6864 337° Northwest 473 544 40,000  Level Jacksonville Center
Sat 09:03:38 PM 30.0806 -82.7367 340° North 468 539 40,000  Level Jacksonville Center
Sat 09:04:38 PM 30.1997 -82.7892 339° North 457 526 40,000  Level Jacksonville Center
Sat 09:05:38 PM 30.3144 -82.8444 337° Northwest 457 526 40,000  Level Jacksonville Center
Sat 09:06:38 PM 30.4294 -82.8975 338° Northwest 457 526 40,000  Level Jacksonville Center
Sat 09:07:38 PM 30.5506 -82.9528 339° North 457 526 40,000  Level Jacksonville Center
Sat 09:08:38 PM 30.6672 -83.0061 339° North 457 526 40,000  Level Jacksonville Center
Sat 09:09:38 PM 30.7864 -83.0619 338° Northwest 457 526 40,000  Level Jacksonville Center
Sat 09:10:38 PM 30.9136 -83.1250 337° Northwest 457 526 40,000  Level Jacksonville Center
Sat 09:11:38 PM 31.0325 -83.1811 338° Northwest 457 526 40,000  Level Jacksonville Center
Sat 09:12:38 PM 31.1514 -83.2350 339° North 457 526 40,000  Level Jacksonville Center
Sat 09:14:19 PM 31.3397 -83.3264 337° Northwest 455 524 40,000  Level Atlanta Center
Sat 09:15:19 PM 31.4611 -83.3817 339° North 455 524 40,000  Level Atlanta Center
Sat 09:16:19 PM 31.5803 -83.4367 339° North 455 524 40,000  Level Atlanta Center
Sat 09:17:19 PM 31.7036 -83.4944 338° Northwest 455 524 40,000  Level Atlanta Center
Sat 09:18:19 PM 31.8250 -83.5525 338° Northwest 462 532 40,000  Level Atlanta Center
Sat 09:19:19 PM 31.9461 -83.6131 337° Northwest 462 532 40,000  Level Atlanta Center
Sat 09:20:19 PM 32.0675 -83.6689 339° North 462 532 40,000  Level Atlanta Center
Sat 09:21:19 PM 32.1844 -83.7297 336° Northwest 456 525 40,000  Level Atlanta Center
Sat 09:22:19 PM 32.3058 -83.7881 338° Northwest 456 525 40,000  Level Atlanta Center
Sat 09:23:19 PM 32.4269 -83.8444 339° North 456 525 40,000  Level Atlanta Center
Sat 09:24:19 PM 32.5439 -83.9033 337° Northwest 456 525 40,000  Level Atlanta Center
Sat 09:25:19 PM 32.6669 -83.9647 337° Northwest 456 525 40,000  Level Atlanta Center
Sat 09:26:19 PM 32.7881 -84.0239 338° Northwest 456 525 40,000  Level Atlanta Center
Sat 09:27:19 PM 32.9092 -84.0808 338° Northwest 456 525 40,000  Level Atlanta Center
Sat 09:28:19 PM 33.0322 -84.1403 338° Northwest 456 525 40,000  Level Atlanta Center
Sat 09:29:19 PM 33.1533 -84.2025 337° Northwest 462 532 40,000  Level Atlanta Center
Sat 09:30:19 PM 33.2764 -84.2625 338° Northwest 474 545 40,000  Level Atlanta Center
Sat 09:31:19 PM 33.3994 -84.3225 338° Northwest 474 545 40,000  Level Atlanta Center
Sat 09:32:19 PM 33.5244 -84.3853 337° Northwest 474 545 40,000  Level Atlanta Center
Sat 09:33:19 PM 33.6600 -84.4506 338° Northwest 474 545 40,000  Level Atlanta Center
Sat 09:34:19 PM 33.7831 -84.5061 339° North 474 545 40,000  Level Atlanta Center
Sat 09:35:19 PM 33.9122 -84.5669 339° North 479 551 40,000  Level Atlanta Center
Sat 09:36:19 PM 34.0392 -84.6203 341° North 479 551 40,000  Level Atlanta Center
Sat 09:37:19 PM 34.1600 -84.6714 341° North 497 572 40,000  Level Atlanta Center
Sat 09:38:19 PM 34.2828 -84.7328 338° Northwest 497 572 40,000  Level Atlanta Center
Sat 09:39:19 PM 34.3969 -84.8192 328° Northwest 475 547 40,000  Level Atlanta Center
Sat 09:40:19 PM 34.5092 -84.9058 328° Northwest 480 552 40,000 -700 Level Atlanta Center
Sat 09:41:19 PM 34.6214 -84.9878 329° Northwest 480 552 38,600 -2,100 Descending Atlanta Center
Sat 09:42:19 PM 34.7414 -85.0853 326° Northwest 472 543 35,800 -2,800 Descending Atlanta Center
Sat 09:43:19 PM 34.8533 -85.1728 327° Northwest 472 543 33,000 -2,322 Descending Atlanta Center
Sat 09:45:38 PM 35.0922 -85.3578 328° Northwest 472 543 28,100 -2,111 Descending Memphis Center
Sat 09:46:38 PM 35.1897 -85.4458 324° Northwest 453 521 26,000 -2,150 Descending Memphis Center
Sat 09:47:38 PM 35.2708 -85.5506 314° West 432 497 23,800 -2,200 Descending Memphis Center
Sat 09:48:38 PM 35.3497 -85.6503 314° West 419 482 21,600 -1,950 Descending Memphis Center
Sat 09:49:38 PM 35.4242 -85.7456 314° West 404 465 19,900 -1,950 Descending Memphis Center
Sat 09:50:38 PM 35.4944 -85.8383 313° West 386 444 17,700 -2,700 Descending Memphis Center
Sat 09:51:38 PM 35.5708 -85.9339 315° West 386 444 14,500 -3,150 Descending Memphis Center
Sat 09:52:38 PM 35.6411 -86.0297 312° West 386 444 11,400 -1,750 Descending Memphis Center
Sat 09:53:38 PM 35.7067 -86.1208 312° West 367 422 11,000 -750 Descending Memphis Center
Sat 09:54:38 PM 35.7639 -86.2075 309° West 336 387 9,900 -1,400 Descending Memphis Center
Sat 09:55:38 PM 35.8125 -86.2894 306° West 306 352 8,200 -1,700 Descending Memphis Center
Sat 09:56:38 PM 35.8694 -86.3789 308° West 306 352 6,500 -1,650 Descending Memphis Center
Sat 09:57:38 PM 35.9017 -86.4694 294° West 295 339 4,900 -1,250 Descending Memphis Center
Sat 09:58:38 PM 35.9375 -86.5525 298° West 282 325 4,000 -450 Descending Memphis Center
Sat 09:59:38 PM 35.9669 -86.6256 296° West 263 303 4,000 -550 Level Memphis Center
Sat 10:00:38 PM 35.9936 -86.6858 299° West 222 255 2,900 -950 Descending Memphis Center
Sat 10:01:38 PM 36.0239 -86.7178 320° Northwest 172 198 2,100 -700 Descending Memphis Center
Sat 10:02:38 PM 36.0589 -86.7061 15° North 112 129 1,500 -650 Descending Memphis Center
Sat 10:03:38 PM 36.0919 -86.6917 19° North 112 129 800 -400 Descending Memphis Center
Sat 10:04:38 PM 36.1208 -86.6828 14° North 112 129 700 -100 Descending Memphis Center
Sat 10:06:00 PM 36.1245 -86.6782 345° North  Level Estimated
Sat 10:13:00 PM 36.1245 -86.6782 345° North  Level Estimated
Sat 10:14:00 PM 36.1245 -86.6782 345° North  Level Estimated
Sat 10:15:00 PM 36.1245 -86.6782 345° North  Level Estimated
Sat 10:16:00 PM 36.1245 -86.6782 345° North  Level Estimated
Sat 10:17:00 PM 36.1245 -86.6782 345° North  Level Estimated
Sat 10:18:00 PM 36.1245 -86.6782 345° North  Level Estimated
Sat 10:19:00 PM 36.1245 -86.6782 345° North  Level Estimated
Sat 10:20:00 PM 36.1245 -86.6782 345° North  Level Estimated

Login

Don't have an account? Register now (free) for customized features, flight alerts, and more!